createdAt,value
2018-05-12T00:00:18.478Z,58.82
2018-05-12T00:02:46.824Z,58.52
2018-05-12T00:05:15.169Z,58.58
2018-05-12T00:07:43.520Z,58.38
2018-05-12T00:10:11.857Z,58.37
2018-05-12T00:12:40.217Z,58.65
2018-05-12T00:15:08.561Z,58.48
2018-05-12T00:17:36.913Z,58.53
2018-05-12T00:20:05.249Z,59.09
2018-05-12T00:22:33.609Z,59.47
2018-05-12T00:25:01.949Z,59.65
2018-05-12T00:27:30.306Z,59.58
2018-05-12T00:29:58.638Z,59.97
2018-05-12T00:32:26.995Z,60.25
2018-05-12T00:34:55.333Z,60.49
2018-05-12T00:37:23.688Z,60.79
2018-05-12T00:39:52.021Z,60.62
2018-05-12T00:42:20.385Z,60.72
2018-05-12T00:44:48.739Z,60.51
2018-05-12T00:47:17.072Z,61.29
2018-05-12T00:49:45.410Z,61.37
2018-05-12T00:52:13.760Z,61.21
2018-05-12T00:54:42.101Z,61.28
2018-05-12T00:57:10.461Z,61.39
2018-05-12T00:59:38.801Z,61.27
2018-05-12T01:02:07.165Z,61.06
2018-05-12T01:04:35.501Z,61.26
2018-05-12T01:07:03.859Z,61.04
2018-05-12T01:09:32.192Z,61.48
2018-05-12T01:12:00.553Z,61.82
2018-05-12T01:14:28.889Z,62.32
2018-05-12T01:16:57.250Z,62.12
2018-05-12T01:19:25.604Z,62.26
2018-05-12T01:21:53.957Z,62.71
2018-05-12T01:24:22.292Z,62.82
2018-05-12T01:26:50.648Z,63.39
2018-05-12T01:29:18.984Z,63.15
2018-05-12T01:31:47.349Z,63.19
2018-05-12T01:34:15.695Z,63.14
2018-05-12T01:36:44.032Z,63.07
2018-05-12T01:39:12.377Z,62.99
2018-05-12T01:41:40.709Z,63.03
2018-05-12T01:44:09.065Z,63.00
2018-05-12T01:46:37.403Z,62.98
2018-05-12T01:49:05.753Z,63.12
2018-05-12T01:51:34.090Z,63.08
2018-05-12T01:54:02.449Z,63.05
2018-05-12T01:56:30.782Z,63.02
2018-05-12T01:58:59.132Z,63.12
2018-05-12T02:01:27.460Z,63.28
2018-05-12T02:03:55.813Z,63.40
2018-05-12T02:06:24.145Z,63.92
2018-05-12T02:08:52.495Z,63.98
2018-05-12T02:11:20.829Z,64.10
2018-05-12T02:13:49.184Z,64.17
2018-05-12T02:16:17.520Z,64.23
2018-05-12T02:18:45.883Z,64.54
2018-05-12T02:21:14.221Z,64.68
2018-05-12T02:23:42.569Z,64.96
2018-05-12T02:26:10.905Z,64.95
2018-05-12T02:28:39.255Z,64.75
2018-05-12T02:31:07.588Z,64.99
2018-05-12T02:33:35.934Z,65.11
2018-05-12T02:36:04.265Z,64.99
2018-05-12T02:38:32.616Z,65.13
2018-05-12T02:41:00.950Z,64.91
2018-05-12T02:43:29.300Z,64.70
2018-05-12T02:45:57.637Z,64.34
2018-05-12T02:48:25.988Z,65.05
2018-05-12T02:50:54.333Z,65.52
2018-05-12T02:53:22.689Z,65.67
2018-05-12T02:55:51.027Z,65.94
2018-05-12T02:58:19.399Z,66.58
2018-05-12T03:00:47.725Z,66.85
2018-05-12T03:03:16.076Z,66.73
2018-05-12T03:05:44.408Z,66.92
2018-05-12T03:08:12.765Z,67.38
2018-05-12T03:10:41.102Z,67.73
2018-05-12T03:13:09.452Z,68.20
2018-05-12T03:15:37.790Z,68.25
2018-05-12T03:18:06.148Z,68.67
2018-05-12T03:20:34.481Z,68.26
2018-05-12T03:23:02.840Z,67.73
2018-05-12T03:25:31.168Z,67.93
2018-05-12T03:27:59.526Z,67.74
2018-05-12T03:30:27.864Z,67.69
2018-05-12T03:32:56.208Z,67.34
2018-05-12T03:35:24.540Z,67.53
2018-05-12T03:37:52.877Z,67.18
2018-05-12T03:40:21.230Z,67.26
2018-05-12T03:42:49.561Z,67.32
2018-05-12T03:45:17.921Z,67.07
2018-05-12T03:47:46.252Z,67.03
2018-05-12T03:50:14.647Z,67.86
2018-05-12T03:52:42.928Z,67.94
2018-05-12T03:55:11.285Z,68.49
2018-05-12T03:57:39.621Z,68.45
2018-05-12T04:00:07.978Z,68.32
2018-05-12T04:02:36.309Z,68.24
2018-05-12T04:05:16.545Z,68.37
2018-05-12T04:07:56.769Z,68.25
2018-05-12T04:10:42.460Z,68.74
2018-05-12T04:13:10.800Z,68.87
2018-05-12T04:15:39.166Z,69.01
2018-05-12T04:18:07.492Z,68.85
2018-05-12T04:20:35.844Z,69.08
2018-05-12T04:23:04.185Z,69.10
2018-05-12T04:25:32.552Z,69.07
2018-05-12T04:28:00.895Z,68.94
2018-05-12T04:30:29.247Z,69.33
2018-05-12T04:32:57.581Z,69.21
2018-05-12T04:35:25.952Z,68.83
2018-05-12T04:37:54.285Z,69.09
2018-05-12T04:40:22.636Z,68.84
2018-05-12T04:42:50.971Z,68.74
2018-05-12T04:45:19.329Z,68.41
2018-05-12T04:47:47.667Z,68.54
2018-05-12T04:50:16.013Z,68.68
2018-05-12T04:52:44.340Z,69.05
2018-05-12T04:55:12.692Z,68.93
2018-05-12T04:57:41.026Z,69.19
2018-05-12T05:00:09.377Z,68.82
2018-05-12T05:02:37.717Z,68.89
2018-05-12T05:05:06.069Z,68.56
2018-05-12T05:07:34.408Z,68.48
2018-05-12T05:10:02.753Z,68.86
2018-05-12T05:12:31.084Z,68.59
2018-05-12T05:14:59.436Z,68.07
2018-05-12T05:17:27.780Z,68.50
2018-05-12T05:19:56.132Z,68.71
2018-05-12T05:22:24.465Z,68.28
2018-05-12T05:24:52.819Z,68.59
2018-05-12T05:27:21.140Z,68.83
2018-05-12T05:29:49.512Z,68.68
2018-05-12T05:32:17.846Z,69.10
2018-05-12T05:34:46.200Z,69.14
2018-05-12T05:37:14.536Z,68.85
2018-05-12T05:39:42.893Z,69.05
2018-05-12T05:42:11.221Z,68.70
2018-05-12T05:44:39.576Z,68.76
2018-05-12T05:47:07.917Z,68.83
2018-05-12T05:49:36.269Z,69.00
2018-05-12T05:52:04.606Z,68.99
2018-05-12T05:54:32.953Z,69.03
2018-05-12T05:57:01.302Z,69.45
2018-05-12T05:59:29.632Z,69.35
2018-05-12T06:01:57.988Z,69.47
2018-05-12T06:04:26.350Z,69.30
2018-05-12T06:06:54.771Z,69.28
2018-05-12T06:09:23.040Z,69.11
2018-05-12T06:11:51.377Z,68.83
2018-05-12T06:14:19.707Z,67.63
2018-05-12T06:16:48.056Z,65.71
2018-05-12T06:19:16.393Z,63.40
2018-05-12T06:21:44.740Z,61.75
2018-05-12T06:24:13.076Z,60.66
2018-05-12T06:26:41.438Z,61.41
2018-05-12T06:29:09.769Z,60.24
2018-05-12T06:31:38.131Z,61.70
2018-05-12T06:34:06.452Z,62.56
2018-05-12T06:36:34.809Z,63.19
2018-05-12T06:39:03.151Z,62.25
2018-05-12T06:41:31.497Z,62.02
2018-05-12T06:43:59.824Z,61.15
2018-05-12T06:46:28.184Z,61.56
2018-05-12T06:48:56.514Z,62.11
2018-05-12T06:51:24.996Z,63.20
2018-05-12T06:53:53.312Z,63.45
2018-05-12T06:56:21.678Z,64.20
2018-05-12T06:58:50.580Z,64.98
2018-05-12T07:01:18.949Z,65.86
2018-05-12T07:03:47.269Z,66.81
2018-05-12T07:06:15.637Z,66.97
2018-05-12T07:08:43.996Z,67.56
2018-05-12T07:11:12.352Z,67.73
2018-05-12T07:13:40.685Z,68.32
2018-05-12T07:16:09.045Z,67.52
2018-05-12T07:18:37.389Z,66.90
2018-05-12T07:21:05.749Z,66.30
2018-05-12T07:23:34.082Z,65.67
2018-05-12T07:26:02.476Z,65.55
2018-05-12T07:28:30.812Z,65.26
2018-05-12T07:30:59.182Z,64.90
2018-05-12T07:33:27.529Z,64.83
2018-05-12T07:35:55.880Z,64.13
2018-05-12T07:38:24.225Z,63.36
2018-05-12T07:40:52.581Z,62.56
2018-05-12T07:43:20.922Z,62.25
2018-05-12T07:45:49.684Z,61.06
2018-05-12T07:48:18.026Z,61.00
2018-05-12T07:50:46.381Z,60.45
2018-05-12T07:53:14.721Z,59.81
2018-05-12T07:55:43.077Z,60.20
2018-05-12T07:58:11.416Z,59.64
2018-05-12T08:00:39.808Z,59.77
2018-05-12T08:03:08.128Z,60.48
2018-05-12T08:05:37.130Z,60.39
2018-05-12T08:08:05.464Z,60.03
2018-05-12T08:10:33.828Z,60.94
2018-05-12T08:13:02.169Z,60.68
2018-05-12T08:15:30.504Z,60.91
2018-05-12T08:17:58.860Z,61.11
2018-05-12T08:20:27.201Z,60.77
2018-05-12T08:22:55.561Z,60.55
2018-05-12T08:25:24.001Z,61.03
2018-05-12T08:27:52.365Z,59.42
2018-05-12T08:30:20.703Z,59.58
2018-05-12T08:32:49.064Z,58.54
2018-05-12T08:35:17.400Z,58.31
2018-05-12T08:37:45.765Z,58.68
2018-05-12T08:40:14.101Z,58.04
2018-05-12T08:42:42.468Z,58.09
2018-05-12T08:45:11.580Z,57.49
2018-05-12T08:47:39.953Z,57.88
2018-05-12T08:50:08.286Z,57.69
2018-05-12T08:52:36.909Z,57.49
2018-05-12T08:55:05.464Z,57.91
2018-05-12T08:57:34.135Z,57.43
2018-05-12T09:00:02.771Z,55.58
2018-05-12T09:02:31.484Z,54.30
2018-05-12T09:05:00.183Z,53.44
2018-05-12T09:07:28.978Z,53.66
2018-05-12T09:09:57.664Z,53.87
2018-05-12T09:12:26.122Z,54.14
2018-05-12T09:14:54.792Z,53.99
2018-05-12T09:17:23.144Z,54.21
2018-05-12T09:19:51.476Z,53.98
2018-05-12T09:22:19.852Z,54.13
2018-05-12T09:24:48.201Z,53.92
2018-05-12T09:27:16.557Z,54.20
2018-05-12T09:29:44.914Z,54.21
2018-05-12T09:32:13.260Z,55.30
2018-05-12T09:34:41.601Z,55.07
2018-05-12T09:37:10.043Z,55.29
2018-05-12T09:39:38.338Z,54.85
2018-05-12T09:42:06.662Z,54.95
2018-05-12T09:44:34.999Z,54.78
2018-05-12T09:47:03.349Z,53.41
2018-05-12T09:49:31.688Z,54.86
2018-05-12T09:52:00.045Z,52.45
2018-05-12T09:54:28.382Z,51.70
2018-05-12T09:56:56.724Z,51.96
2018-05-12T09:59:25.133Z,52.48
2018-05-12T10:01:53.416Z,53.10
2018-05-12T10:04:21.759Z,53.24
2018-05-12T10:06:50.112Z,52.86
2018-05-12T10:09:18.444Z,53.10
2018-05-12T10:11:46.800Z,53.66
2018-05-12T10:14:15.132Z,50.38
2018-05-12T10:16:43.457Z,48.34
2018-05-12T10:19:11.800Z,48.42
2018-05-12T10:21:40.124Z,48.57
2018-05-12T10:24:08.477Z,48.92
2018-05-12T10:26:36.800Z,49.85
2018-05-12T10:29:05.144Z,51.31
2018-05-12T10:31:33.472Z,50.10
2018-05-12T10:34:01.829Z,50.52
2018-05-12T10:36:30.158Z,50.60
2018-05-12T10:38:58.524Z,50.70
2018-05-12T10:41:26.833Z,50.02
2018-05-12T10:43:55.676Z,50.98
2018-05-12T10:46:24.008Z,50.94
2018-05-12T10:48:52.365Z,51.25
2018-05-12T10:51:20.704Z,52.53
2018-05-12T10:53:49.056Z,51.44
2018-05-12T10:56:17.396Z,51.81
2018-05-12T10:58:45.744Z,50.07
2018-05-12T11:01:14.156Z,50.89
2018-05-12T11:03:42.840Z,50.68
2018-05-12T11:06:11.176Z,51.26
2018-05-12T11:08:39.525Z,50.22
2018-05-12T11:11:07.872Z,50.16
2018-05-12T11:13:36.454Z,49.14
2018-05-12T11:16:05.100Z,50.01
2018-05-12T11:18:33.335Z,49.79
2018-05-12T11:21:03.393Z,49.07
2018-05-12T11:23:32.015Z,50.16
2018-05-12T11:26:00.389Z,49.11
2018-05-12T11:28:28.785Z,48.78
2018-05-12T11:30:57.247Z,49.01
2018-05-12T11:33:25.625Z,47.94
2018-05-12T11:35:53.964Z,48.68
2018-05-12T11:38:22.955Z,48.02
2018-05-12T11:40:51.276Z,47.19
2018-05-12T11:43:21.465Z,47.30
2018-05-12T11:45:49.860Z,47.79
2018-05-12T11:48:19.132Z,47.08
2018-05-12T11:50:47.469Z,46.77
2018-05-12T11:53:15.825Z,47.46
2018-05-12T11:55:44.160Z,46.93
2018-05-12T11:58:12.516Z,47.34
2018-05-12T12:00:40.844Z,47.30
2018-05-12T12:03:09.204Z,46.96
2018-05-12T12:05:37.539Z,47.62
2018-05-12T12:08:05.901Z,46.44
2018-05-12T12:10:34.619Z,46.18
2018-05-12T12:13:02.969Z,46.80
2018-05-12T12:15:31.300Z,46.17
2018-05-12T12:17:59.669Z,45.86
2018-05-12T12:20:28.008Z,46.21
2018-05-12T12:22:56.340Z,46.35
2018-05-12T12:25:24.705Z,46.01
2018-05-12T12:27:53.034Z,46.18
2018-05-12T12:30:21.385Z,45.74
2018-05-12T12:32:49.725Z,44.47
2018-05-12T12:35:18.077Z,46.47
2018-05-12T12:37:46.408Z,46.28
2018-05-12T12:40:14.764Z,45.21
2018-05-12T12:42:43.092Z,45.73
2018-05-12T12:45:11.493Z,45.65
2018-05-12T12:47:39.810Z,45.70
2018-05-12T12:50:08.147Z,46.61
2018-05-12T12:52:36.478Z,46.60
2018-05-12T12:55:04.824Z,46.23
2018-05-12T12:57:33.157Z,46.73
2018-05-12T13:00:01.518Z,45.29
2018-05-12T13:02:29.905Z,46.57
2018-05-12T13:04:58.210Z,47.02
2018-05-12T13:07:26.552Z,46.59
2018-05-12T13:09:54.908Z,45.51
2018-05-12T13:12:23.240Z,46.51
2018-05-12T13:14:51.596Z,46.70
2018-05-12T13:17:19.928Z,46.51
2018-05-12T13:19:48.287Z,46.80
2018-05-12T13:22:16.621Z,47.22
2018-05-12T13:24:44.980Z,46.93
2018-05-12T13:27:13.325Z,46.80
2018-05-12T13:29:41.683Z,47.09
2018-05-12T13:32:10.009Z,47.62
2018-05-12T13:34:38.380Z,47.03
2018-05-12T13:37:06.721Z,47.28
2018-05-12T13:39:35.080Z,47.28
2018-05-12T13:42:03.417Z,46.76
2018-05-12T13:44:31.779Z,46.86
2018-05-12T13:47:00.112Z,46.18
2018-05-12T13:49:28.460Z,47.18
2018-05-12T13:51:56.801Z,45.74
2018-05-12T13:54:25.192Z,46.20
2018-05-12T13:56:53.538Z,46.79
2018-05-12T13:59:21.853Z,45.58
2018-05-12T14:01:50.785Z,45.91
2018-05-12T14:04:19.142Z,46.25
2018-05-12T14:06:47.477Z,46.86
2018-05-12T14:09:15.834Z,46.94
2018-05-12T14:11:44.169Z,47.75
2018-05-12T14:14:12.520Z,47.28
2018-05-12T14:16:40.860Z,46.93
2018-05-12T14:19:09.221Z,46.64
2018-05-12T14:21:38.331Z,46.81
2018-05-12T14:24:06.661Z,47.57
2018-05-12T14:26:35.004Z,48.45
2018-05-12T14:29:03.337Z,48.22
2018-05-12T14:31:31.697Z,48.34
2018-05-12T14:34:00.033Z,48.24
2018-05-12T14:36:28.397Z,47.88
2018-05-12T14:38:56.724Z,48.36
2018-05-12T14:41:26.072Z,48.03
2018-05-12T14:43:54.440Z,48.12
2018-05-12T14:46:22.813Z,47.88
2018-05-12T14:48:51.157Z,47.74
2018-05-12T14:51:19.541Z,47.51
2018-05-12T14:53:47.898Z,47.65
2018-05-12T14:56:16.364Z,48.50
2018-05-12T14:58:44.704Z,48.48
2018-05-12T15:01:13.057Z,49.06
2018-05-12T15:03:41.397Z,48.35
2018-05-12T15:06:09.753Z,48.29
2018-05-12T15:08:38.092Z,49.00
2018-05-12T15:11:06.447Z,49.66
2018-05-12T15:13:34.784Z,48.40
2018-05-12T15:16:03.141Z,48.97
2018-05-12T15:18:31.472Z,49.79
2018-05-12T15:20:59.835Z,49.32
2018-05-12T15:23:28.167Z,49.32
2018-05-12T15:25:56.556Z,49.04
2018-05-12T15:28:24.861Z,48.46
2018-05-12T15:30:53.221Z,48.61
2018-05-12T15:33:21.564Z,49.55
2018-05-12T15:35:49.926Z,50.38
2018-05-12T15:38:18.327Z,50.52
2018-05-12T15:40:46.668Z,50.93
2018-05-12T15:43:15.002Z,51.52
2018-05-12T15:45:43.389Z,50.37
2018-05-12T15:48:11.692Z,49.53
2018-05-12T15:50:40.053Z,49.97
2018-05-12T15:53:08.387Z,49.77
2018-05-12T15:55:36.745Z,50.28
2018-05-12T15:58:05.081Z,50.36
2018-05-12T16:00:33.446Z,50.29
2018-05-12T16:03:01.786Z,50.94
2018-05-12T16:05:30.129Z,51.34
2018-05-12T16:07:58.470Z,50.44
2018-05-12T16:10:26.851Z,50.75
2018-05-12T16:12:55.200Z,50.27
2018-05-12T16:15:23.566Z,50.46
2018-05-12T16:17:51.924Z,50.88
2018-05-12T16:20:20.317Z,50.96
2018-05-12T16:22:48.640Z,51.12
2018-05-12T16:25:16.994Z,51.20
2018-05-12T16:27:45.353Z,51.43
2018-05-12T16:30:13.692Z,50.94
2018-05-12T16:32:42.053Z,51.30
2018-05-12T16:35:10.393Z,50.53
2018-05-12T16:37:38.753Z,50.75
2018-05-12T16:40:07.104Z,50.65
2018-05-12T16:42:35.457Z,50.94
2018-05-12T16:45:04.157Z,51.35
2018-05-12T16:47:32.914Z,51.41
2018-05-12T16:50:01.605Z,51.91
2018-05-12T16:52:30.360Z,52.27
2018-05-12T16:54:59.126Z,51.30
2018-05-12T16:57:27.761Z,51.52
2018-05-12T16:59:56.252Z,51.93
2018-05-12T17:02:25.049Z,52.10
2018-05-12T17:04:53.768Z,52.28
2018-05-12T17:07:22.516Z,52.34
2018-05-12T17:09:50.987Z,51.97
2018-05-12T17:12:19.737Z,52.39
2018-05-12T17:14:48.421Z,52.46
2018-05-12T17:17:17.057Z,52.75
2018-05-12T17:19:45.693Z,53.16
2018-05-12T17:22:14.462Z,52.86
2018-05-12T17:24:43.174Z,53.29
2018-05-12T17:27:12.638Z,53.09
2018-05-12T17:29:41.295Z,52.55
2018-05-12T17:32:09.759Z,52.75
2018-05-12T17:34:38.443Z,52.92
2018-05-12T17:37:07.190Z,53.15
2018-05-12T17:39:35.956Z,53.30
2018-05-12T17:42:04.728Z,53.66
2018-05-12T17:44:33.333Z,53.65
2018-05-12T17:47:01.987Z,53.77
2018-05-12T17:49:30.660Z,53.81
2018-05-12T17:51:59.458Z,54.09
2018-05-12T17:54:28.995Z,54.72
2018-05-12T17:56:57.830Z,55.22
2018-05-12T17:59:26.619Z,55.43
2018-05-12T18:01:55.363Z,55.29
2018-05-12T18:04:24.129Z,55.67
2018-05-12T18:06:53.004Z,55.73
2018-05-12T18:09:21.360Z,55.81
2018-05-12T18:11:49.725Z,55.69
2018-05-12T18:14:18.056Z,56.16
2018-05-12T18:16:46.408Z,56.07
2018-05-12T18:19:15.141Z,55.72
2018-05-12T18:21:43.876Z,55.94
2018-05-12T18:24:12.570Z,56.58
2018-05-12T18:26:41.351Z,56.78
2018-05-12T18:29:10.299Z,56.68
2018-05-12T18:31:39.041Z,56.77
2018-05-12T18:34:07.689Z,57.17
2018-05-12T18:36:36.425Z,57.26
2018-05-12T18:39:05.953Z,57.63
2018-05-12T18:41:34.716Z,57.64
2018-05-12T18:44:03.597Z,57.65
2018-05-12T18:46:32.265Z,57.39
2018-05-12T18:49:00.998Z,57.55
2018-05-12T18:51:29.672Z,57.84
2018-05-12T18:53:58.358Z,57.99
2018-05-12T18:56:27.042Z,57.72
2018-05-12T18:58:55.889Z,57.88
2018-05-12T19:01:24.464Z,57.78
2018-05-12T19:03:53.078Z,57.85
2018-05-12T19:06:21.930Z,58.00
2018-05-12T19:08:51.338Z,58.04
2018-05-12T19:11:20.007Z,58.30
2018-05-12T19:13:48.733Z,58.37
2018-05-12T19:16:17.369Z,58.43
2018-05-12T19:18:46.137Z,58.94
2018-05-12T19:21:14.740Z,59.62
2018-05-12T19:23:43.437Z,59.64
2018-05-12T19:26:12.090Z,59.88
2018-05-12T19:28:40.765Z,60.05
2018-05-12T19:31:09.439Z,60.60
2018-05-12T19:33:38.144Z,60.19
2018-05-12T19:36:06.814Z,60.68
2018-05-12T19:38:35.510Z,61.03
2018-05-12T19:41:04.190Z,61.08
2018-05-12T19:43:32.875Z,61.04
2018-05-12T19:46:01.578Z,61.66
2018-05-12T19:48:30.288Z,61.31
2018-05-12T19:50:59.033Z,61.26
2018-05-12T19:53:27.768Z,61.12
2018-05-12T19:55:56.457Z,60.53
2018-05-12T19:58:25.320Z,58.22
2018-05-12T20:00:53.964Z,59.27
2018-05-12T20:03:22.634Z,59.16
2018-05-12T20:05:51.314Z,59.36
2018-05-12T20:08:20.044Z,59.61
2018-05-12T20:10:48.639Z,59.71
2018-05-12T20:13:21.162Z,59.95
2018-05-12T20:15:49.864Z,59.88
2018-05-12T20:18:18.590Z,60.18
2018-05-12T20:20:47.276Z,59.98
2018-05-12T20:23:16.014Z,59.59
2018-05-12T20:25:44.719Z,59.50
2018-05-12T20:28:13.465Z,59.56
2018-05-12T20:30:42.181Z,59.93
2018-05-12T20:33:10.912Z,60.00
2018-05-12T20:35:39.555Z,60.09
2018-05-12T20:38:07.955Z,60.25
2018-05-12T20:40:36.284Z,60.48
2018-05-12T20:43:04.659Z,60.38
2018-05-12T20:45:32.984Z,60.29
2018-05-12T20:48:01.355Z,60.83
2018-05-12T20:50:29.693Z,61.46
2018-05-12T20:52:58.057Z,61.42
2018-05-12T20:55:26.396Z,61.13
2018-05-12T20:57:54.728Z,61.37
2018-05-12T21:00:24.085Z,61.16
2018-05-12T21:02:52.426Z,61.09
2018-05-12T21:05:20.785Z,61.43
2018-05-12T21:07:49.138Z,61.50
2018-05-12T21:10:17.489Z,61.32
2018-05-12T21:12:45.820Z,62.13
2018-05-12T21:15:14.196Z,62.21
2018-05-12T21:17:42.529Z,62.10
2018-05-12T21:20:10.885Z,62.59
2018-05-12T21:22:39.220Z,62.54
2018-05-12T21:25:07.590Z,62.88
2018-05-12T21:27:35.933Z,63.21
2018-05-12T21:30:04.301Z,63.71
2018-05-12T21:32:32.645Z,63.38
2018-05-12T21:35:01.000Z,63.59
2018-05-12T21:37:29.344Z,63.73
2018-05-12T21:39:58.529Z,63.86
2018-05-12T21:42:26.866Z,64.19
2018-05-12T21:44:55.248Z,64.26
2018-05-12T21:47:23.576Z,63.18
2018-05-12T21:49:51.943Z,64.01
2018-05-12T21:52:20.273Z,64.46
2018-05-12T21:54:48.633Z,64.93
2018-05-12T21:57:16.971Z,65.03
2018-05-12T21:59:45.329Z,64.90
2018-05-12T22:02:13.669Z,64.89
2018-05-12T22:04:42.029Z,64.89
2018-05-12T22:07:10.365Z,64.93
2018-05-12T22:09:38.728Z,65.53
2018-05-12T22:12:07.069Z,65.47
2018-05-12T22:14:35.420Z,66.30
2018-05-12T22:17:03.764Z,66.78
2018-05-12T22:19:32.821Z,66.40
2018-05-12T22:22:01.157Z,66.21
2018-05-12T22:24:29.516Z,66.15
2018-05-12T22:26:57.856Z,66.33
2018-05-12T22:29:26.213Z,65.69
2018-05-12T22:31:54.552Z,65.86
2018-05-12T22:34:22.905Z,65.87
2018-05-12T22:36:51.249Z,66.00
2018-05-12T22:39:19.609Z,65.64
2018-05-12T22:41:48.930Z,65.40
2018-05-12T22:44:17.285Z,65.54
2018-05-12T22:46:45.624Z,65.67
2018-05-12T22:49:13.980Z,65.89
2018-05-12T22:51:42.325Z,65.94
2018-05-12T22:54:10.680Z,66.22
2018-05-12T22:56:39.020Z,66.36
2018-05-12T22:59:07.388Z,66.65
2018-05-12T23:01:35.716Z,67.15
2018-05-12T23:04:04.127Z,67.22
2018-05-12T23:06:32.425Z,67.00
2018-05-12T23:09:00.763Z,66.89
2018-05-12T23:11:29.115Z,66.91
2018-05-12T23:13:57.440Z,66.77
2018-05-12T23:16:25.796Z,66.56
2018-05-12T23:18:54.141Z,66.44
2018-05-12T23:21:22.497Z,66.43
2018-05-12T23:23:50.825Z,66.10
2018-05-12T23:26:19.188Z,66.92
2018-05-12T23:28:47.521Z,67.17
2018-05-12T23:31:15.881Z,67.36
2018-05-12T23:33:44.207Z,67.19
2018-05-12T23:36:12.564Z,67.50
2018-05-12T23:38:40.900Z,67.65
2018-05-12T23:41:09.261Z,67.60
2018-05-12T23:43:37.593Z,67.55
2018-05-12T23:46:05.961Z,67.78
2018-05-12T23:48:34.301Z,67.78
2018-05-12T23:51:02.658Z,67.89
2018-05-12T23:53:30.992Z,67.68
2018-05-12T23:55:59.348Z,67.65
2018-05-12T23:58:27.686Z,67.48
